This is the latest recevied weather packets stored in our database for station/object KE8URB. If no packets are shown the sender has not sent any weather packets the latest 10 day(s).
| Time | Temp. | Humidity | Pressure | Rain* | Wind** | Luminosity | Snow |
|---|---|---|---|---|---|---|---|
| 1787942384 | 25° C | 67% | 1021.6 hPa | 0 mm | - | 356 W/m² | - |
| 1787942080 | 24.44° C | 67% | 1021.6 hPa | 0 mm | - | 249 W/m² | - |
| 1787941776 | 23.89° C | 69% | 1021.8 hPa | 0 mm | - | 214 W/m² | - |
| 1787941473 | 23.33° C | 69% | 1021.7 hPa | 0 mm | - | 90 W/m² | - |
| 1787941167 | 23.89° C | 69% | 1021.6 hPa | 0 mm | - | 68 W/m² | - |
| 1787940862 | 24.44° C | 69% | 1021.5 hPa | 0 mm | - | 86 W/m² | - |
| 1787940560 | 23.89° C | 74% | 1021.6 hPa | 0 mm | - | 138 W/m² | - |
| 1787940254 | 23.33° C | 76% | 1021.7 hPa | 0 mm | - | 72 W/m² | - |
| 1787939949 | 23.89° C | 72% | 1021.6 hPa | 0 mm | - | 77 W/m² | - |
| 1787939648 | 24.44° C | 72% | 1021.7 hPa | 0 mm | - | 61 W/m² | - |
| 1787939343 | 25° C | 72% | 1021.5 hPa | 0 mm | - | 109 W/m² | - |
| 1787939038 | 24.44° C | 76% | 1021.7 hPa | 0 mm | - | 92 W/m² | - |
| 1787938736 | 23.89° C | 75% | 1021.4 hPa | 0 mm | - | 67 W/m² | - |
| 1787938434 | 23.89° C | 76% | 1021.6 hPa | 0 mm | - | 82 W/m² | - |
| 1787938128 | 23.33° C | 78% | 1021.6 hPa | 0 mm | - | 108 W/m² | - |
| 1787937824 | 23.89° C | 77% | 1021.7 hPa | 0 mm | - | 93 W/m² | - |
| 1787937519 | 24.44° C | 74% | 1021.5 hPa | 0 mm | - | 94 W/m² | - |
| 1787937210 | 24.44° C | 74% | 1021.4 hPa | 0 mm | - | 78 W/m² | - |
| 1787936910 | 23.89° C | 74% | 1021.3 hPa | 0 mm | - | 128 W/m² | - |
| 1787936609 | 23.89° C | 77% | 1021.5 hPa | 0 mm | - | 85 W/m² | - |
| 1787936309 | 23.33° C | 79% | 1021.7 hPa | 0 mm | - | 67 W/m² | - |
| 1787936005 | 23.89° C | 77% | 1021.4 hPa | 0 mm | - | 54 W/m² | - |
| 1787935700 | 23.33° C | 79% | 1021.4 hPa | 0 mm | - | 97 W/m² | - |
| 1787935396 | 23.89° C | 77% | 1021.4 hPa | 0 mm | - | 105 W/m² | - |
| 1787935092 | 24.44° C | 78% | 1021.5 hPa | 0 mm | - | 93 W/m² | - |
* Rain latest hour (hover to see other rain measurements)
** Current wind speed in m/s (hover to see current wind gust speed)